createdAt,value
2018-04-09T00:01:06.484Z,15.50
2018-04-09T00:03:34.180Z,15.50
2018-04-09T00:06:01.739Z,15.40
2018-04-09T00:08:29.291Z,15.20
2018-04-09T00:10:56.852Z,15.20
2018-04-09T00:13:24.385Z,15.20
2018-04-09T00:15:52.085Z,15.20
2018-04-09T00:18:19.840Z,15.10
2018-04-09T00:20:47.605Z,15.20
2018-04-09T00:23:15.172Z,15.10
2018-04-09T00:25:42.762Z,15.00
2018-04-09T00:28:10.293Z,15.10
2018-04-09T00:30:37.885Z,15.00
2018-04-09T00:33:05.420Z,14.90
2018-04-09T00:35:32.980Z,14.90
2018-04-09T00:38:00.557Z,15.00
2018-04-09T00:40:28.407Z,15.00
2018-04-09T00:42:57.236Z,15.00
2018-04-09T00:45:25.563Z,14.90
2018-04-09T00:47:53.173Z,14.90
2018-04-09T00:50:20.683Z,15.00
2018-04-09T00:52:48.216Z,15.10
2018-04-09T00:55:15.762Z,15.10
2018-04-09T00:57:44.054Z,15.00
2018-04-09T01:00:11.579Z,15.00
2018-04-09T01:02:39.137Z,15.00
2018-04-09T01:05:06.737Z,14.90
2018-04-09T01:07:34.321Z,14.80
2018-04-09T01:10:02.072Z,14.90
2018-04-09T01:12:29.641Z,14.80
2018-04-09T01:14:57.195Z,14.80
2018-04-09T01:17:24.729Z,14.70
2018-04-09T01:19:53.040Z,14.70
2018-04-09T01:22:20.581Z,14.70
2018-04-09T01:24:48.107Z,14.70
2018-04-09T01:27:15.665Z,14.70
2018-04-09T01:29:43.183Z,14.60
2018-04-09T01:32:10.755Z,14.60
2018-04-09T01:34:38.295Z,14.60
2018-04-09T01:37:06.145Z,14.70
2018-04-09T01:39:33.668Z,14.70
2018-04-09T01:42:01.998Z,14.60
2018-04-09T01:44:29.561Z,14.50
2018-04-09T01:46:57.118Z,14.50
2018-04-09T01:49:24.738Z,14.40
2018-04-09T01:51:52.259Z,14.40
2018-04-09T01:54:19.808Z,14.40
2018-04-09T01:56:47.373Z,14.40
2018-04-09T01:59:14.951Z,14.50
2018-04-09T02:01:42.978Z,14.50
2018-04-09T02:04:10.541Z,14.50
2018-04-09T02:06:38.099Z,14.40
2018-04-09T02:09:05.685Z,14.40
2018-04-09T02:11:33.275Z,14.30
2018-04-09T02:14:00.824Z,14.30
2018-04-09T02:16:28.409Z,14.20
2018-04-09T02:18:55.954Z,14.20
2018-04-09T02:21:23.544Z,14.10
2018-04-09T02:23:51.144Z,14.10
2018-04-09T02:26:18.791Z,14.00
2018-04-09T02:28:46.376Z,14.10
2018-04-09T02:31:13.931Z,14.20
2018-04-09T02:33:41.492Z,14.10
2018-04-09T02:36:09.064Z,14.10
2018-04-09T02:38:36.600Z,14.10
2018-04-09T02:41:05.016Z,14.00
2018-04-09T02:43:33.316Z,13.90
2018-04-09T02:46:00.860Z,13.90
2018-04-09T02:48:29.209Z,14.00
2018-04-09T02:50:56.742Z,14.00
2018-04-09T02:53:24.303Z,14.00
2018-04-09T02:55:51.916Z,13.90
2018-04-09T02:58:20.290Z,13.80
2018-04-09T03:00:48.634Z,13.80
2018-04-09T03:03:16.500Z,13.80
2018-04-09T03:05:44.152Z,14.00
2018-04-09T03:08:11.643Z,14.00
2018-04-09T03:10:39.237Z,13.90
2018-04-09T03:13:06.792Z,14.00
2018-04-09T03:15:34.389Z,14.00
2018-04-09T03:18:01.954Z,13.90
2018-04-09T03:20:29.559Z,13.90
2018-04-09T03:22:57.856Z,14.00
2018-04-09T03:25:25.416Z,14.00
2018-04-09T03:27:53.719Z,13.90
2018-04-09T03:30:21.613Z,13.90
2018-04-09T03:32:49.178Z,13.90
2018-04-09T03:35:16.771Z,13.90
2018-04-09T03:37:45.122Z,13.90
2018-04-09T03:40:13.649Z,13.90
2018-04-09T03:42:41.206Z,13.80
2018-04-09T03:45:08.788Z,13.80
2018-04-09T03:47:36.346Z,13.80
2018-04-09T03:50:03.916Z,13.80
2018-04-09T03:52:31.568Z,13.70
2018-04-09T03:54:59.111Z,13.80
2018-04-09T03:57:26.654Z,13.80
2018-04-09T03:59:54.949Z,13.90
2018-04-09T04:02:22.521Z,13.90
2018-04-09T04:04:50.064Z,13.90
2018-04-09T04:07:17.626Z,13.80
2018-04-09T04:09:45.187Z,13.70
2018-04-09T04:12:12.748Z,13.70
2018-04-09T04:14:40.365Z,13.60
2018-04-09T04:17:19.663Z,13.70
2018-04-09T04:19:58.952Z,13.70
2018-04-09T04:22:27.292Z,13.60
2018-04-09T04:24:54.867Z,13.60
2018-04-09T04:27:22.664Z,13.60
2018-04-09T04:29:51.061Z,13.60
2018-04-09T04:32:18.601Z,13.50
2018-04-09T04:34:46.206Z,13.50
2018-04-09T04:37:13.760Z,13.50
2018-04-09T04:39:41.340Z,13.50
2018-04-09T04:42:08.896Z,13.60
2018-04-09T04:44:36.459Z,13.60
2018-04-09T04:47:04.025Z,13.50
2018-04-09T04:49:31.656Z,13.40
2018-04-09T04:51:59.321Z,13.40
2018-04-09T04:54:26.938Z,13.50
2018-04-09T04:56:55.281Z,13.60
2018-04-09T04:59:22.918Z,13.60
2018-04-09T05:01:50.517Z,13.60
2018-04-09T05:04:18.169Z,13.70
2018-04-09T05:06:46.745Z,13.70
2018-04-09T05:09:14.353Z,13.70
2018-04-09T05:11:42.125Z,13.70
2018-04-09T05:14:09.673Z,13.70
2018-04-09T05:16:37.251Z,13.70
2018-04-09T05:19:04.909Z,13.50
2018-04-09T05:21:32.493Z,13.60
2018-04-09T05:24:00.069Z,13.60
2018-04-09T05:26:27.635Z,13.60
2018-04-09T05:28:55.213Z,13.60
2018-04-09T05:31:22.812Z,13.60
2018-04-09T05:33:50.517Z,13.60
2018-04-09T05:36:18.064Z,13.60
2018-04-09T05:38:45.640Z,13.70
2018-04-09T05:41:13.263Z,13.80
2018-04-09T05:43:40.898Z,13.80
2018-04-09T05:46:08.484Z,13.80
2018-04-09T05:48:36.162Z,13.80
2018-04-09T05:51:04.502Z,13.80
2018-04-09T05:53:32.188Z,13.80
2018-04-09T05:55:59.763Z,13.80
2018-04-09T05:58:27.373Z,13.80
2018-04-09T06:00:54.990Z,13.80
2018-04-09T06:03:22.558Z,13.80
2018-04-09T06:05:50.130Z,13.80
2018-04-09T06:08:17.680Z,13.80
2018-04-09T06:10:45.329Z,13.80
2018-04-09T06:13:12.890Z,13.90
2018-04-09T06:15:40.489Z,13.90
2018-04-09T06:18:08.820Z,13.90
2018-04-09T06:20:36.410Z,13.90
2018-04-09T06:23:03.996Z,14.00
2018-04-09T06:25:31.641Z,14.00
2018-04-09T06:27:59.230Z,14.00
2018-04-09T06:30:26.787Z,14.10
2018-04-09T06:32:55.126Z,14.20
2018-04-09T06:35:22.780Z,14.20
2018-04-09T06:37:50.358Z,14.20
2018-04-09T06:40:18.030Z,14.20
2018-04-09T06:42:45.803Z,14.30
2018-04-09T06:45:13.439Z,14.30
2018-04-09T06:47:42.111Z,14.40
2018-04-09T06:50:09.772Z,14.40
2018-04-09T06:52:37.349Z,14.50
2018-04-09T06:55:05.016Z,14.50
2018-04-09T06:57:32.615Z,14.60
2018-04-09T07:00:00.627Z,14.70
2018-04-09T07:02:28.204Z,14.80
2018-04-09T07:04:55.843Z,14.70
2018-04-09T07:07:23.572Z,14.80
2018-04-09T07:09:51.140Z,14.80
2018-04-09T07:12:18.754Z,14.90
2018-04-09T07:14:46.534Z,15.00
2018-04-09T07:17:14.986Z,15.00
2018-04-09T07:19:42.655Z,15.00
2018-04-09T07:22:10.530Z,15.10
2018-04-09T07:24:38.190Z,15.20
2018-04-09T07:27:06.167Z,15.20
2018-04-09T07:29:33.717Z,15.30
2018-04-09T07:32:01.283Z,15.30
2018-04-09T07:34:28.915Z,15.30
2018-04-09T07:36:57.072Z,14.10
2018-04-09T07:39:24.652Z,15.50
2018-04-09T07:41:52.338Z,15.50
2018-04-09T07:44:19.878Z,15.60
2018-04-09T07:46:47.515Z,15.60
2018-04-09T07:49:15.094Z,15.60
2018-04-09T07:51:42.669Z,15.70
2018-04-09T07:54:10.238Z,15.70
2018-04-09T07:56:37.901Z,15.70
2018-04-09T07:59:05.519Z,15.80
2018-04-09T08:01:33.078Z,15.90
2018-04-09T08:04:00.629Z,15.90
2018-04-09T08:06:28.282Z,16.00
2018-04-09T08:08:56.051Z,16.10
2018-04-09T08:11:23.615Z,16.10
2018-04-09T08:13:51.211Z,16.20
2018-04-09T08:16:18.791Z,16.30
2018-04-09T08:18:46.404Z,16.40
2018-04-09T08:21:14.021Z,16.40
2018-04-09T08:23:41.807Z,16.50
2018-04-09T08:26:10.326Z,16.70
2018-04-09T08:28:38.842Z,16.80
2018-04-09T08:31:06.691Z,16.80
2018-04-09T08:33:34.602Z,16.80
2018-04-09T08:36:02.185Z,16.90
2018-04-09T08:38:29.785Z,17.00
2018-04-09T08:40:58.073Z,17.10
2018-04-09T08:43:25.637Z,17.10
2018-04-09T08:45:53.264Z,17.10
2018-04-09T08:48:20.964Z,17.20
2018-04-09T08:50:48.510Z,17.20
2018-04-09T08:53:16.121Z,17.30
2018-04-09T08:55:43.726Z,17.40
2018-04-09T08:58:12.109Z,17.40
2018-04-09T09:00:39.684Z,17.40
2018-04-09T09:03:07.245Z,17.50
2018-04-09T09:05:35.034Z,17.50
2018-04-09T09:08:03.373Z,17.60
2018-04-09T09:10:32.008Z,17.70
2018-04-09T09:13:00.264Z,17.70
2018-04-09T09:15:28.087Z,17.80
2018-04-09T09:17:55.678Z,17.80
2018-04-09T09:20:23.261Z,17.90
2018-04-09T09:22:50.929Z,18.00
2018-04-09T09:25:19.306Z,18.10
2018-04-09T09:27:48.010Z,18.20
2018-04-09T09:30:15.674Z,18.20
2018-04-09T09:32:43.302Z,18.20
2018-04-09T09:35:11.654Z,18.30
2018-04-09T09:37:39.227Z,18.30
2018-04-09T09:40:06.777Z,18.40
2018-04-09T09:42:34.377Z,18.40
2018-04-09T09:45:03.277Z,18.50
2018-04-09T09:47:31.018Z,18.50
2018-04-09T09:49:58.676Z,18.50
2018-04-09T09:52:26.273Z,18.60
2018-04-09T09:54:53.809Z,18.60
2018-04-09T09:57:21.531Z,18.60
2018-04-09T09:59:49.103Z,18.70
2018-04-09T10:02:16.739Z,18.70
2018-04-09T10:04:44.327Z,18.70
2018-04-09T10:07:11.975Z,18.80
2018-04-09T10:09:39.543Z,18.80
2018-04-09T10:12:07.100Z,18.90
2018-04-09T10:14:34.725Z,18.90
2018-04-09T10:17:02.271Z,18.90
2018-04-09T10:19:29.850Z,18.90
2018-04-09T10:21:57.393Z,18.90
2018-04-09T10:24:24.975Z,18.90
2018-04-09T10:26:52.558Z,18.90
2018-04-09T10:29:20.151Z,18.90
2018-04-09T10:31:47.787Z,18.90
2018-04-09T10:34:15.408Z,19.00
2018-04-09T10:36:43.083Z,19.00
2018-04-09T10:39:10.677Z,19.00
2018-04-09T10:41:38.337Z,19.00
2018-04-09T10:44:05.893Z,19.00
2018-04-09T10:46:34.343Z,19.00
2018-04-09T10:49:01.924Z,19.00
2018-04-09T10:51:29.534Z,19.00
2018-04-09T10:53:57.827Z,19.00
2018-04-09T10:56:25.639Z,19.00
2018-04-09T10:58:53.214Z,19.00
2018-04-09T11:01:20.761Z,19.10
2018-04-09T11:03:48.409Z,19.10
2018-04-09T11:06:16.043Z,19.10
2018-04-09T11:08:43.612Z,19.20
2018-04-09T11:11:11.170Z,19.30
2018-04-09T11:13:38.719Z,19.40
2018-04-09T11:16:06.341Z,19.50
2018-04-09T11:18:33.961Z,19.50
2018-04-09T11:21:01.549Z,19.50
2018-04-09T11:23:29.110Z,19.50
2018-04-09T11:25:56.732Z,19.50
2018-04-09T11:28:24.369Z,19.50
2018-04-09T11:30:51.968Z,19.50
2018-04-09T11:33:19.578Z,19.50
2018-04-09T11:35:47.143Z,19.50
2018-04-09T11:38:15.672Z,19.60
2018-04-09T11:40:43.371Z,19.60
2018-04-09T11:43:11.011Z,19.60
2018-04-09T11:45:38.611Z,19.50
2018-04-09T11:48:06.172Z,19.60
2018-04-09T11:50:33.834Z,19.60
2018-04-09T11:53:01.370Z,19.70
2018-04-09T11:55:28.948Z,19.70
2018-04-09T12:00:24.740Z,20.20
2018-04-09T12:02:52.294Z,20.20
2018-04-09T12:05:19.875Z,20.30
2018-04-09T12:07:47.449Z,20.40
2018-04-09T12:10:15.215Z,20.40
2018-04-09T12:12:42.851Z,20.40
2018-04-09T12:15:10.435Z,20.40
2018-04-09T12:17:38.102Z,20.40
2018-04-09T12:20:05.683Z,20.40
2018-04-09T12:22:34.107Z,20.40
2018-04-09T12:25:01.723Z,20.40
2018-04-09T12:27:29.292Z,20.50
2018-04-09T12:29:56.890Z,20.50
2018-04-09T12:32:24.489Z,20.40
2018-04-09T12:34:52.879Z,20.50
2018-04-09T12:37:21.209Z,20.60
2018-04-09T12:39:48.775Z,20.60
2018-04-09T12:42:16.385Z,20.70
2018-04-09T12:44:44.409Z,20.70
2018-04-09T12:47:12.323Z,20.70
2018-04-09T12:49:40.736Z,20.70
2018-04-09T12:52:08.263Z,20.70
2018-04-09T12:54:35.831Z,20.80
2018-04-09T12:57:03.384Z,20.80
2018-04-09T12:59:31.791Z,20.90
2018-04-09T13:01:59.387Z,20.90
2018-04-09T13:04:27.018Z,20.80
2018-04-09T13:06:54.608Z,20.90
2018-04-09T13:09:22.168Z,21.00
2018-04-09T13:11:49.807Z,21.10
2018-04-09T13:14:17.725Z,21.10
2018-04-09T13:16:46.103Z,21.00
2018-04-09T13:19:14.832Z,21.00
2018-04-09T13:21:42.399Z,20.90
2018-04-09T13:24:09.979Z,20.90
2018-04-09T13:26:37.546Z,20.80
2018-04-09T13:29:05.146Z,20.80
2018-04-09T13:31:32.703Z,20.80
2018-04-09T13:34:01.034Z,20.80
2018-04-09T13:36:28.683Z,20.80
2018-04-09T13:38:56.236Z,20.70
2018-04-09T13:41:23.855Z,20.70
2018-04-09T13:43:51.409Z,20.70
2018-04-09T13:46:19.007Z,20.70
2018-04-09T13:48:46.586Z,20.60
2018-04-09T13:51:14.232Z,20.60
2018-04-09T13:53:41.810Z,20.80
2018-04-09T13:56:09.376Z,20.90
2018-04-09T13:58:37.149Z,21.00
2018-04-09T14:01:04.694Z,21.00
2018-04-09T14:03:32.415Z,21.00
2018-04-09T14:06:00.021Z,21.00
2018-04-09T14:08:27.597Z,21.00
2018-04-09T14:10:55.150Z,21.10
2018-04-09T14:13:22.730Z,21.00
2018-04-09T14:15:50.286Z,21.00
2018-04-09T14:18:17.819Z,20.90
2018-04-09T14:20:45.593Z,20.80
2018-04-09T14:23:13.236Z,20.80
2018-04-09T14:25:40.799Z,20.70
2018-04-09T14:28:08.348Z,20.70
2018-04-09T14:30:35.974Z,20.60
2018-04-09T14:33:04.319Z,20.60
2018-04-09T14:35:32.028Z,20.60
2018-04-09T14:38:00.460Z,20.60
2018-04-09T14:40:28.090Z,20.50
2018-04-09T14:42:55.738Z,20.50
2018-04-09T14:45:23.315Z,20.50
2018-04-09T14:47:50.885Z,20.50
2018-04-09T14:50:18.443Z,20.50
2018-04-09T14:52:46.067Z,20.50
2018-04-09T14:55:13.606Z,20.60
2018-04-09T14:57:41.967Z,20.60
2018-04-09T15:00:09.732Z,20.60
2018-04-09T15:02:37.443Z,20.60
2018-04-09T15:05:05.122Z,20.60
2018-04-09T15:07:32.669Z,20.60
2018-04-09T15:10:00.577Z,20.60
2018-04-09T15:12:28.185Z,20.60
2018-04-09T15:14:56.504Z,20.50
2018-04-09T15:17:24.359Z,20.50
2018-04-09T15:19:51.995Z,20.60
2018-04-09T15:22:19.624Z,20.60
2018-04-09T15:24:47.195Z,20.60
2018-04-09T15:27:14.779Z,20.60
2018-04-09T15:29:42.385Z,20.60
2018-04-09T15:32:09.928Z,20.60
2018-04-09T15:34:37.681Z,20.50
2018-04-09T15:37:05.293Z,20.50
2018-04-09T15:39:32.883Z,20.50
2018-04-09T15:42:00.463Z,20.50
2018-04-09T15:44:28.027Z,20.60
2018-04-09T15:46:55.611Z,20.60
2018-04-09T15:49:23.200Z,20.60
2018-04-09T15:51:51.534Z,20.60
2018-04-09T15:54:19.186Z,20.60
2018-04-09T15:56:46.780Z,20.60
2018-04-09T15:59:14.609Z,20.60
2018-04-09T16:01:42.135Z,20.60
2018-04-09T16:04:09.710Z,20.60
2018-04-09T16:06:38.045Z,20.50
2018-04-09T16:09:05.607Z,20.50
2018-04-09T16:11:33.317Z,20.50
2018-04-09T16:14:00.928Z,20.50
2018-04-09T16:16:28.541Z,20.50
2018-04-09T16:18:56.109Z,20.40
2018-04-09T16:21:23.904Z,20.40
2018-04-09T16:23:51.498Z,20.40
2018-04-09T16:26:19.099Z,20.40
2018-04-09T16:28:46.769Z,20.40
2018-04-09T16:31:14.392Z,20.40
2018-04-09T16:33:41.969Z,20.40
2018-04-09T16:36:09.536Z,20.50
2018-04-09T16:38:37.134Z,20.40
2018-04-09T16:41:04.736Z,20.40
2018-04-09T16:43:33.115Z,20.40
2018-04-09T16:46:00.709Z,20.40
2018-04-09T16:48:28.523Z,20.40
2018-04-09T16:50:56.135Z,20.40
2018-04-09T16:53:23.753Z,20.40
2018-04-09T16:55:51.670Z,20.40
2018-04-09T16:58:19.216Z,20.40
2018-04-09T17:00:46.897Z,20.30
2018-04-09T17:03:14.501Z,20.30
2018-04-09T17:05:42.074Z,20.30
2018-04-09T17:08:10.424Z,20.20
2018-04-09T17:10:38.019Z,20.20
2018-04-09T17:13:05.604Z,20.20
2018-04-09T17:15:33.206Z,20.10
2018-04-09T17:18:00.840Z,20.10
2018-04-09T17:20:28.372Z,20.10
2018-04-09T17:22:56.009Z,20.00
2018-04-09T17:25:23.546Z,20.00
2018-04-09T17:27:51.197Z,20.00
2018-04-09T17:30:18.778Z,20.00
2018-04-09T17:32:46.360Z,19.90
2018-04-09T17:35:13.904Z,19.90
2018-04-09T17:37:41.542Z,19.90
2018-04-09T17:40:09.091Z,19.90
2018-04-09T17:42:36.634Z,19.90
2018-04-09T17:45:04.210Z,19.90
2018-04-09T17:47:31.761Z,19.80
2018-04-09T17:49:59.416Z,19.80
2018-04-09T17:52:26.958Z,19.80
2018-04-09T17:54:54.755Z,19.80
2018-04-09T17:57:22.320Z,19.80
2018-04-09T17:59:49.880Z,19.80
2018-04-09T18:02:17.442Z,19.70
2018-04-09T18:04:45.104Z,19.70
2018-04-09T18:07:12.669Z,19.70
2018-04-09T18:09:40.280Z,19.70
2018-04-09T18:12:07.981Z,19.60
2018-04-09T18:14:35.627Z,19.60
2018-04-09T18:17:03.302Z,19.60
2018-04-09T18:19:30.852Z,19.60
2018-04-09T18:21:58.478Z,19.60
2018-04-09T18:24:26.803Z,19.50
2018-04-09T18:26:54.435Z,19.50
2018-04-09T18:29:22.017Z,19.50
2018-04-09T18:31:49.590Z,19.50
2018-04-09T18:34:17.133Z,19.50
2018-04-09T18:36:44.714Z,19.50
2018-04-09T18:39:12.271Z,19.40
2018-04-09T18:41:39.922Z,19.40
2018-04-09T18:44:07.479Z,19.40
2018-04-09T18:46:35.062Z,19.40
2018-04-09T18:49:02.617Z,19.30
2018-04-09T18:51:30.172Z,19.30
2018-04-09T18:53:57.826Z,19.30
2018-04-09T18:56:25.378Z,19.30
2018-04-09T18:58:52.964Z,19.20
2018-04-09T19:01:20.513Z,19.20
2018-04-09T19:03:48.076Z,19.20
2018-04-09T19:06:15.623Z,19.20
2018-04-09T19:08:43.195Z,19.10
2018-04-09T19:11:10.763Z,19.10
2018-04-09T19:13:38.320Z,19.10
2018-04-09T19:16:05.971Z,19.10
2018-04-09T19:18:33.548Z,19.00
2018-04-09T19:21:01.133Z,19.00
2018-04-09T19:23:29.572Z,19.00
2018-04-09T19:25:57.128Z,18.90
2018-04-09T19:28:24.739Z,18.90
2018-04-09T19:30:53.068Z,18.90
2018-04-09T19:33:20.613Z,18.90
2018-04-09T19:35:53.779Z,18.90
2018-04-09T19:38:26.928Z,18.80
2018-04-09T19:40:54.506Z,18.80
2018-04-09T19:43:22.055Z,18.80
2018-04-09T19:45:49.637Z,18.70
2018-04-09T19:48:17.535Z,18.70
2018-04-09T19:50:45.126Z,18.70
2018-04-09T19:53:12.669Z,18.70
2018-04-09T19:55:40.226Z,18.70
2018-04-09T19:58:07.776Z,18.70
2018-04-09T20:00:35.411Z,18.70
2018-04-09T20:03:02.999Z,18.70
2018-04-09T20:05:30.555Z,18.70
2018-04-09T20:07:58.476Z,18.60
2018-04-09T20:10:26.058Z,18.60
2018-04-09T20:12:53.629Z,18.60
2018-04-09T20:15:21.156Z,18.50
2018-04-09T20:17:48.768Z,18.60
2018-04-09T20:20:16.364Z,18.50
2018-04-09T20:22:43.934Z,18.50
2018-04-09T20:25:12.264Z,18.40
2018-04-09T20:27:39.882Z,18.40
2018-04-09T20:30:07.441Z,18.40
2018-04-09T20:32:35.789Z,18.40
2018-04-09T20:35:03.372Z,18.40
2018-04-09T20:37:30.904Z,18.40
2018-04-09T20:39:58.469Z,18.30
2018-04-09T20:42:26.011Z,18.30
2018-04-09T20:44:53.666Z,18.30
2018-04-09T20:47:21.530Z,18.20
2018-04-09T20:49:49.086Z,18.20
2018-04-09T20:52:16.680Z,18.20
2018-04-09T20:54:44.354Z,18.10
2018-04-09T20:57:15.750Z,18.10
2018-04-09T21:19:03.428Z,18.10
2018-04-09T21:21:30.980Z,16.70
2018-04-09T21:23:58.531Z,17.00
2018-04-09T21:26:26.119Z,17.20
2018-04-09T21:28:53.686Z,17.30
2018-04-09T21:31:21.243Z,17.40
2018-04-09T21:33:48.818Z,17.50
2018-04-09T21:36:16.394Z,17.50
2018-04-09T21:38:44.007Z,17.50
2018-04-09T21:41:11.567Z,17.50
2018-04-09T21:43:39.143Z,17.50
2018-04-09T21:46:06.687Z,17.50
2018-04-09T21:48:34.266Z,17.60
2018-04-09T21:51:01.826Z,17.60
2018-04-09T21:53:29.436Z,17.50
2018-04-09T21:55:57.047Z,17.50
2018-04-09T21:58:24.625Z,17.40
2018-04-09T22:00:52.212Z,17.40
2018-04-09T22:03:19.837Z,17.40
2018-04-09T22:05:47.413Z,17.30
2018-04-09T22:08:14.953Z,17.30
2018-04-09T22:10:42.553Z,17.30
2018-04-09T22:13:10.075Z,17.30
2018-04-09T22:15:37.637Z,17.30
2018-04-09T22:18:05.234Z,17.20
2018-04-09T22:20:33.522Z,17.20
2018-04-09T22:23:01.052Z,17.20
2018-04-09T22:25:28.680Z,17.20
2018-04-09T22:27:56.242Z,17.30
2018-04-09T22:30:23.816Z,17.20
2018-04-09T22:32:51.382Z,17.20
2018-04-09T22:35:18.951Z,17.20
2018-04-09T22:37:46.535Z,17.20
2018-04-09T22:40:14.094Z,17.20
2018-04-09T22:42:42.428Z,17.20
2018-04-09T22:45:10.011Z,17.20
2018-04-09T22:47:37.599Z,17.20
2018-04-09T22:50:05.215Z,17.20
2018-04-09T22:52:32.759Z,17.20
2018-04-09T22:55:00.357Z,17.10
2018-04-09T22:57:28.673Z,17.10
2018-04-09T22:59:56.270Z,17.10
2018-04-09T23:02:23.804Z,17.00
2018-04-09T23:04:51.380Z,17.00
2018-04-09T23:07:18.975Z,17.00
2018-04-09T23:09:46.565Z,17.00
2018-04-09T23:12:14.150Z,17.00
2018-04-09T23:14:41.684Z,17.00
2018-04-09T23:17:09.244Z,17.00
2018-04-09T23:19:36.809Z,17.00
2018-04-09T23:22:04.403Z,16.90
2018-04-09T23:24:32.023Z,16.90
2018-04-09T23:26:59.589Z,16.80
2018-04-09T23:29:27.123Z,16.70
2018-04-09T23:31:54.710Z,16.70
2018-04-09T23:34:22.244Z,16.70
2018-04-09T23:36:49.979Z,16.60
2018-04-09T23:39:17.508Z,16.60
2018-04-09T23:41:45.107Z,16.60
2018-04-09T23:44:12.699Z,16.70
2018-04-09T23:46:40.246Z,16.60
2018-04-09T23:49:07.825Z,16.60
2018-04-09T23:51:35.552Z,16.50
2018-04-09T23:54:03.132Z,16.50
2018-04-09T23:56:30.685Z,16.50
2018-04-09T23:58:58.355Z,16.50
